Time;durP1;ratioP1;P1;durP2;ratioP2;P2;SDS_P1;SDS_P2;PMS_P1;PMS_P2;Temp;Humidity;BMP_temperature;BMP_pressure;BME280_temperature;BME280_humidity;BME280_pressure;Samples;Min_cycle;Max_cycle;Signal;HPM_P1;HPM_P2
2021/09/10 00:01:27;;;;;;;5.10;3.50;;;;;;;17.01;53.90;94141.59;4988116;28;20034;-80
2021/09/10 00:03:52;;;;;;;4.25;2.75;;;;;;;17.17;52.99;94161.25;4987201;28;20030;-79
2021/09/10 00:06:17;;;;;;;5.85;3.05;;;;;;;17.54;52.01;94153.72;4990594;28;20030;-78
2021/09/10 00:08:43;;;;;;;5.85;3.20;;;;;;;17.31;52.23;94123.19;4988038;28;20827;-79
2021/09/10 00:11:08;;;;;;;3.50;3.20;;;;;;;17.17;53.16;94155.88;4988423;28;20323;-79
2021/09/10 00:13:34;;;;;;;6.00;3.35;;;;;;;16.96;53.66;94146.47;4984284;28;20553;-80
2021/09/10 00:15:59;;;;;;;3.97;3.58;;;;;;;17.00;53.42;94156.19;4992876;28;20443;-79
2021/09/10 00:18:26;;;;;;;5.85;4.03;;;;;;;16.92;53.70;94159.78;4987170;28;20029;-78
2021/09/10 00:20:51;;;;;;;5.25;4.30;;;;;;;16.81;54.01;94148.00;4989393;28;20038;-79
2021/09/10 00:23:17;;;;;;;7.85;3.88;;;;;;;16.75;53.71;94127.88;4986218;28;20501;-80
2021/09/10 00:25:42;;;;;;;7.25;3.88;;;;;;;16.87;53.51;94157.34;4987433;28;20838;-79
2021/09/10 00:28:08;;;;;;;6.03;4.38;;;;;;;16.67;53.85;94137.66;4988312;28;20037;-78
2021/09/10 00:30:34;;;;;;;6.10;3.63;;;;;;;16.83;53.74;94163.75;4984333;28;20290;-77
2021/09/10 00:33:00;;;;;;;5.15;3.58;;;;;;;16.79;53.51;94147.56;4988702;28;20420;-79
2021/09/10 00:35:25;;;;;;;5.00;4.38;;;;;;;16.78;53.82;94159.41;4988154;28;20038;-76
2021/09/10 00:37:50;;;;;;;6.75;3.78;;;;;;;16.83;53.59;94155.72;4990523;28;20030;-80
2021/09/10 00:40:16;;;;;;;3.85;3.45;;;;;;;16.76;53.53;94153.63;4988469;28;20053;-79
2021/09/10 00:42:41;;;;;;;3.80;3.08;;;;;;;16.77;53.12;94142.53;4989002;28;20073;-79
2021/09/10 00:45:07;;;;;;;5.97;3.38;;;;;;;17.10;52.43;94158.38;4990078;28;20039;-79
2021/09/10 00:47:32;;;;;;;5.90;3.03;;;;;;;16.80;52.78;94141.06;4992304;28;20046;-79
2021/09/10 00:49:58;;;;;;;4.32;3.47;;;;;;;16.96;52.47;94149.94;4987740;28;20035;-79
2021/09/10 00:52:24;;;;;;;7.43;3.42;;;;;;;16.75;52.78;94144.00;4990607;28;20605;-79
2021/09/10 00:54:49;;;;;;;5.20;3.33;;;;;;;16.91;52.82;94155.56;4991879;28;20034;-79
2021/09/10 00:57:15;;;;;;;10.15;3.90;;;;;;;17.04;52.41;94153.59;4998596;28;20650;-79
2021/09/10 00:59:41;;;;;;;6.90;4.63;;;;;;;16.89;52.64;94151.66;4991460;28;20078;-79
2021/09/10 01:02:06;;;;;;;6.97;3.53;;;;;;;16.64;53.55;94138.34;4992112;28;20042;-80
2021/09/10 01:04:32;;;;;;;8.10;3.95;;;;;;;17.00;52.76;94150.81;4991678;28;20051;-80
2021/09/10 01:07:00;;;;;;;7.95;4.30;;;;;;;17.00;52.51;94156.19;4989674;28;20022;-79
2021/09/10 01:09:26;;;;;;;6.68;3.70;;;;;;;16.70;53.81;94136.19;4992251;28;20043;-79
2021/09/10 01:11:53;;;;;;;7.57;3.70;;;;;;;17.09;53.18;94153.34;4990793;28;20042;-76
2021/09/10 01:14:19;;;;;;;7.05;3.95;;;;;;;16.99;52.98;94114.31;4993125;28;20069;-79
2021/09/10 01:16:46;;;;;;;6.32;3.65;;;;;;;17.07;53.41;94140.22;4989687;28;20619;-79
2021/09/10 01:19:30;;;;;;;5.15;4.10;;;;;;;16.77;54.34;94131.00;4989131;28;20095;-80
2021/09/10 01:21:59;;;;;;;4.82;4.35;;;;;;;16.74;54.20;94129.78;4992519;28;20030;-80
2021/09/10 01:24:31;;;;;;;5.07;4.22;;;;;;;17.23;53.19;94140.28;4991239;28;20046;-80
2021/09/10 01:26:57;;;;;;;8.63;4.55;;;;;;;16.93;53.94;94139.09;4989967;28;20041;-78
2021/09/10 01:29:23;;;;;;;7.60;5.20;;;;;;;16.84;54.41;94141.16;4990795;28;20409;-79
2021/09/10 01:31:48;;;;;;;6.05;5.00;;;;;;;16.67;54.70;94126.16;4998734;28;20042;-79
2021/09/10 01:34:14;;;;;;;7.18;5.60;;;;;;;16.56;54.58;94117.03;4988395;28;20056;-80
2021/09/10 01:36:39;;;;;;;7.88;5.60;;;;;;;16.67;54.88;94131.53;4991579;28;20070;-79
2021/09/10 01:39:05;;;;;;;9.38;5.68;;;;;;;16.56;54.58;94117.03;4990437;28;20033;-79
2021/09/10 01:41:30;;;;;;;9.13;5.68;;;;;;;16.57;54.55;94126.66;4991096;28;20051;-79
2021/09/10 01:43:55;;;;;;;7.65;5.07;;;;;;;16.50;54.43;94113.03;4989311;28;20042;-79
2021/09/10 01:46:21;;;;;;;6.40;4.55;;;;;;;16.87;53.72;94135.88;4989156;28;20034;-78
2021/09/10 01:48:48;;;;;;;7.40;5.22;;;;;;;16.82;53.15;94111.19;4996830;28;20057;-78
2021/09/10 01:51:13;;;;;;;8.40;5.70;;;;;;;16.80;53.92;94129.53;4990583;28;20034;-79
2021/09/10 01:53:39;;;;;;;8.07;5.03;;;;;;;16.60;54.02;94134.78;4991868;28;20030;-80
2021/09/10 01:56:04;;;;;;;7.75;5.07;;;;;;;16.51;54.42;94133.38;4989604;28;20254;-79
2021/09/10 01:58:30;;;;;;;18.75;5.15;;;;;;;16.44;54.34;94136.63;4990446;28;20505;-78
2021/09/10 02:00:55;;;;;;;9.63;5.80;;;;;;;16.35;54.79;94135.22;4991293;28;20564;-79
2021/09/10 02:03:21;;;;;;;9.13;5.38;;;;;;;16.06;54.47;94091.47;4990955;28;20042;-79
2021/09/10 02:05:46;;;;;;;8.07;5.65;;;;;;;16.24;54.72;94141.03;4988166;28;20042;-79
2021/09/10 02:08:12;;;;;;;8.85;6.22;;;;;;;16.14;55.02;94120.06;4992044;28;20038;-79
2021/09/10 02:10:37;;;;;;;11.73;6.40;;;;;;;16.35;54.38;94116.44;5005485;28;20042;-79
2021/09/10 02:13:02;;;;;;;8.25;6.25;;;;;;;16.40;53.97;94098.19;4990855;28;20064;-79
2021/09/10 02:15:28;;;;;;;11.00;6.47;;;;;;;16.42;54.47;94130.06;4990972;28;20066;-79
2021/09/10 02:17:53;;;;;;;9.05;6.60;;;;;;;16.22;54.57;94124.50;4991707;28;20052;-78
2021/09/10 02:20:19;;;;;;;9.10;6.45;;;;;;;16.05;55.23;94118.63;4992921;28;20101;-79
2021/09/10 02:22:44;;;;;;;8.63;6.45;;;;;;;15.93;55.30;94119.44;4989084;28;20500;-79
2021/09/10 02:25:10;;;;;;;9.13;6.32;;;;;;;15.94;55.23;94123.69;4993246;28;20053;-78
2021/09/10 02:27:36;;;;;;;7.40;6.68;;;;;;;15.94;55.33;94130.97;4988652;28;20038;-79
2021/09/10 02:30:02;;;;;;;9.73;6.43;;;;;;;15.91;55.34;94127.03;4991129;28;20076;-78
2021/09/10 02:32:27;;;;;;;8.55;6.88;;;;;;;15.79;55.99;94117.09;4989619;28;20096;-80
2021/09/10 02:34:53;;;;;;;10.27;6.82;;;;;;;15.78;55.97;94110.22;4991565;28;20038;-80
2021/09/10 02:37:18;;;;;;;10.15;8.25;;;;;;;15.97;55.76;94136.44;4989405;28;20111;-77
2021/09/10 02:39:44;;;;;;;11.30;6.88;;;;;;;15.87;55.35;94104.72;4989394;28;20068;-79
2021/09/10 02:42:09;;;;;;;12.27;6.90;;;;;;;16.09;54.92;94122.19;4988060;28;20042;-80
2021/09/10 02:44:34;;;;;;;9.98;6.43;;;;;;;15.90;55.29;94112.06;4990902;28;20069;-79
2021/09/10 02:47:00;;;;;;;7.85;6.30;;;;;;;15.92;55.43;94122.47;4989203;28;20038;-80
2021/09/10 02:49:25;;;;;;;8.27;5.20;;;;;;;15.99;55.19;94138.78;4990325;28;20096;-79
2021/09/10 02:51:51;;;;;;;7.70;5.57;;;;;;;15.73;55.24;94126.53;4989904;28;20014;-80
2021/09/10 02:54:16;;;;;;;10.65;5.93;;;;;;;15.80;55.44;94128.63;4987125;28;20042;-79
2021/09/10 02:56:42;;;;;;;6.50;4.85;;;;;;;15.89;54.99;94134.63;4992338;28;20045;-79
2021/09/10 02:59:07;;;;;;;9.45;6.70;;;;;;;15.83;54.95;94136.00;4989839;28;20030;-79
2021/09/10 03:01:32;;;;;;;6.20;5.45;;;;;;;15.85;55.19;94142.59;4989032;28;20046;-76
2021/09/10 03:03:58;;;;;;;8.07;5.60;;;;;;;15.87;54.93;94136.91;4990662;28;20041;-79
2021/09/10 03:06:23;;;;;;;7.85;5.65;;;;;;;15.81;55.18;94128.28;4989312;28;20038;-79
2021/09/10 03:08:49;;;;;;;6.65;6.05;;;;;;;15.80;54.71;94123.25;4989348;28;20401;-77
2021/09/10 03:11:14;;;;;;;9.70;5.90;;;;;;;15.90;54.69;94138.88;4988250;28;20046;-77
2021/09/10 03:13:39;;;;;;;9.07;5.55;;;;;;;15.86;54.56;94146.06;4996768;28;20411;-79
2021/09/10 03:16:05;;;;;;;7.63;4.97;;;;;;;15.74;54.91;94138.03;4988191;28;20088;-79
2021/09/10 03:18:30;;;;;;;7.50;5.05;;;;;;;15.64;54.76;94127.78;4991217;28;20400;-78
2021/09/10 03:20:56;;;;;;;6.85;4.70;;;;;;;15.62;54.78;94146.06;4987283;28;20488;-79
2021/09/10 03:23:21;;;;;;;7.80;4.60;;;;;;;15.62;54.92;94136.13;4991045;28;20154;-79
2021/09/10 03:25:47;;;;;;;5.53;4.68;;;;;;;15.64;54.93;94135.81;4989944;28;20041;-76
2021/09/10 03:28:12;;;;;;;5.15;4.63;;;;;;;15.55;54.87;94137.84;4988473;28;20765;-79
2021/09/10 03:30:37;;;;;;;7.65;4.35;;;;;;;15.71;54.25;94136.00;4990020;28;20018;-79
2021/09/10 03:33:03;;;;;;;7.40;4.22;;;;;;;15.95;53.55;94138.66;4992235;28;20065;-79
2021/09/10 03:35:28;;;;;;;6.40;3.47;;;;;;;15.82;53.84;94147.84;4991516;28;20146;-78
2021/09/10 03:37:53;;;;;;;5.50;3.85;;;;;;;15.58;54.59;94145.97;4986990;28;20511;-79
2021/09/10 03:40:19;;;;;;;8.45;4.40;;;;;;;15.49;54.47;94136.50;4987956;28;20089;-79
2021/09/10 03:42:44;;;;;;;8.07;4.18;;;;;;;15.51;54.67;94151.09;4988558;28;20022;-80
2021/09/10 03:45:10;;;;;;;5.20;3.53;;;;;;;15.49;54.32;94131.13;4988610;28;20866;-79
2021/09/10 03:47:35;;;;;;;6.05;4.40;;;;;;;15.46;54.39;94138.72;4986829;28;20034;-78
2021/09/10 03:50:01;;;;;;;8.70;4.43;;;;;;;15.37;54.63;94129.97;4988759;28;20121;-79
2021/09/10 03:52:26;;;;;;;4.30;3.85;;;;;;;15.59;54.51;94149.44;4986427;28;20027;-78
2021/09/10 03:54:52;;;;;;;13.05;3.78;;;;;;;15.45;54.60;94137.13;4986497;28;20511;-78
2021/09/10 03:57:17;;;;;;;6.53;4.10;;;;;;;15.43;54.77;94150.09;4987377;28;20092;-79
2021/09/10 03:59:43;;;;;;;10.98;4.85;;;;;;;15.46;54.63;94145.97;4992739;28;20037;-80
2021/09/10 04:02:08;;;;;;;6.78;4.43;;;;;;;15.47;54.55;94134.13;4988885;28;20037;-78
2021/09/10 04:04:33;;;;;;;4.30;3.90;;;;;;;15.45;54.77;94136.34;4984422;28;20043;-76
2021/09/10 04:06:59;;;;;;;4.93;4.28;;;;;;;15.51;54.70;94144.97;4968463;28;20027;-79
2021/09/10 04:09:24;;;;;;;6.25;3.88;;;;;;;15.22;54.07;94103.84;4991784;28;20038;-81
2021/09/10 04:11:50;;;;;;;7.18;4.25;;;;;;;15.50;54.18;94149.53;4988643;28;20085;-79
2021/09/10 04:14:15;;;;;;;7.75;3.38;;;;;;;15.38;54.03;94131.53;4988546;28;20062;-79
2021/09/10 04:16:40;;;;;;;6.32;3.10;;;;;;;15.37;53.79;94135.34;4987941;28;20054;-79
2021/09/10 04:19:06;;;;;;;6.65;3.97;;;;;;;15.32;54.35;94154.31;4987415;28;20105;-78
2021/09/10 04:21:31;;;;;;;5.47;3.80;;;;;;;15.27;54.35;94145.72;4990500;28;20038;-76
2021/09/10 04:23:58;;;;;;;9.35;4.55;;;;;;;15.40;54.17;94166.81;4989524;28;20033;-79
2021/09/10 04:26:23;;;;;;;5.22;4.30;;;;;;;15.41;53.97;94164.91;4987149;28;20041;-79
2021/09/10 04:28:49;;;;;;;9.88;4.00;;;;;;;15.34;54.25;94160.13;4990648;28;20488;-79
2021/09/10 04:31:16;;;;;;;5.43;4.72;;;;;;;15.37;54.49;94164.81;4986761;28;20076;-79
2021/09/10 04:33:41;;;;;;;5.68;4.63;;;;;;;15.28;54.35;94156.09;4991176;28;20528;-78
2021/09/10 04:36:06;;;;;;;8.52;5.18;;;;;;;15.51;54.14;94171.75;4987004;28;20112;-79
2021/09/10 04:38:32;;;;;;;9.73;4.80;;;;;;;15.42;54.27;94167.28;4989952;28;20620;-79
2021/09/10 04:40:57;;;;;;;6.07;5.45;;;;;;;15.52;54.07;94173.34;4992609;28;20527;-79
2021/09/10 04:43:22;;;;;;;6.72;4.85;;;;;;;15.45;54.41;94171.19;4992684;28;20045;-79
2021/09/10 04:45:48;;;;;;;9.90;5.38;;;;;;;15.39;54.46;94154.56;4992836;28;20100;-79
2021/09/10 04:48:14;;;;;;;9.73;5.15;;;;;;;15.35;54.54;94159.00;4997603;28;20050;-78
2021/09/10 04:50:39;;;;;;;8.40;4.95;;;;;;;15.51;54.96;94180.59;4990025;28;20034;-79
2021/09/10 04:53:05;;;;;;;8.32;4.75;;;;;;;15.56;54.52;94158.91;4990263;28;20044;-78
2021/09/10 04:55:30;;;;;;;8.90;4.65;;;;;;;16.06;53.88;94169.28;4990788;28;20536;-76
2021/09/10 04:57:55;;;;;;;9.60;4.88;;;;;;;16.27;53.78;94174.47;4990118;28;20057;-79
2021/09/10 05:00:21;;;;;;;11.63;6.07;;;;;;;16.29;54.03;94175.69;4993422;28;20076;-80
2021/09/10 05:02:46;;;;;;;10.50;6.60;;;;;;;16.40;53.90;94175.25;4990613;28;20034;-77
2021/09/10 05:05:12;;;;;;;9.88;7.90;;;;;;;16.45;54.37;94173.09;4993543;28;20060;-80
2021/09/10 05:07:37;;;;;;;15.02;8.50;;;;;;;16.33;55.01;94155.13;4992545;28;20516;-78
2021/09/10 05:10:03;;;;;;;12.57;9.43;;;;;;;16.54;54.96;94165.69;4990684;28;20026;-79
2021/09/10 05:12:28;;;;;;;12.07;9.43;;;;;;;16.65;54.90;94160.63;4990449;28;20035;-77
2021/09/10 05:14:54;;;;;;;13.07;10.88;;;;;;;16.73;54.48;94173.09;4989836;28;20181;-79
2021/09/10 05:17:20;;;;;;;9.30;7.75;;;;;;;16.81;54.02;94169.50;4992243;28;20039;-80
2021/09/10 05:19:46;;;;;;;16.45;8.43;;;;;;;16.79;54.57;94171.72;4993761;28;20034;-79
2021/09/10 05:22:11;;;;;;;11.25;9.05;;;;;;;16.71;54.11;94143.13;4989356;28;20318;-79
2021/09/10 05:24:37;;;;;;;12.93;10.65;;;;;;;16.95;53.85;94159.13;4989919;28;20029;-78
2021/09/10 05:27:04;;;;;;;15.90;11.45;;;;;;;16.92;53.26;94149.06;4992541;28;20046;-79
2021/09/10 05:29:29;;;;;;;22.63;12.27;;;;;;;17.03;53.75;94152.81;4990281;28;20039;-80
2021/09/10 05:31:55;;;;;;;13.93;10.75;;;;;;;17.30;53.07;94180.00;4991031;28;20050;-79
2021/09/10 05:34:21;;;;;;;20.10;11.40;;;;;;;17.34;53.02;94159.34;4989752;28;20038;-76
2021/09/10 05:36:46;;;;;;;19.23;12.65;;;;;;;17.33;53.36;94168.53;4991549;28;20033;-79
2021/09/10 05:39:12;;;;;;;15.65;13.45;;;;;;;17.24;53.78;94165.25;4990183;28;20129;-79
2021/09/10 05:41:37;;;;;;;16.67;13.10;;;;;;;17.22;53.81;94167.50;4991709;28;20053;-78
2021/09/10 05:44:02;;;;;;;23.83;13.38;;;;;;;17.26;53.42;94176.44;4992468;28;20579;-78
2021/09/10 05:46:28;;;;;;;16.75;12.70;;;;;;;17.22;53.79;94164.81;4991282;28;20026;-78
2021/09/10 05:48:53;;;;;;;16.40;12.13;;;;;;;17.46;53.00;94170.00;4991799;28;20025;-78
2021/09/10 05:51:19;;;;;;;16.40;12.75;;;;;;;17.54;52.56;94171.75;5006737;28;20501;-78
2021/09/10 05:53:44;;;;;;;16.98;12.93;;;;;;;17.55;52.46;94170.63;4989678;28;20386;-78
2021/09/10 05:56:10;;;;;;;18.35;13.57;;;;;;;17.54;52.97;94171.75;4989995;28;20465;-78
2021/09/10 05:58:35;;;;;;;18.65;12.65;;;;;;;17.51;53.09;94153.63;4992195;28;20049;-77
2021/09/10 06:01:01;;;;;;;18.02;13.15;;;;;;;17.74;52.72;94169.94;4991384;28;20057;-78
2021/09/10 06:03:26;;;;;;;20.40;13.18;;;;;;;17.72;52.74;94170.25;4989823;28;20517;-79
2021/09/10 06:05:52;;;;;;;22.58;12.68;;;;;;;17.82;52.52;94161.66;4990542;28;20424;-79
2021/09/10 06:08:17;;;;;;;18.85;13.68;;;;;;;17.57;52.75;94158.38;4991724;28;20045;-79
2021/09/10 06:10:44;;;;;;;18.35;11.73;;;;;;;17.65;52.80;94159.31;4992399;28;20046;-80
2021/09/10 06:13:10;;;;;;;23.20;13.13;;;;;;;17.81;51.53;94156.63;4992724;28;20860;-78
2021/09/10 06:15:36;;;;;;;15.52;12.05;;;;;;;17.84;51.23;94155.94;4991721;28;20033;-78
2021/09/10 06:18:02;;;;;;;19.33;12.52;;;;;;;17.88;51.66;94162.97;4989313;28;20042;-79
2021/09/10 06:20:27;;;;;;;17.98;12.20;;;;;;;18.11;50.82;94171.16;4989393;28;20145;-77
2021/09/10 06:22:53;;;;;;;19.25;12.20;;;;;;;18.11;49.79;94148.84;4987418;28;20034;-79
2021/09/10 06:25:19;;;;;;;17.67;11.75;;;;;;;18.37;49.59;94167.88;4989099;28;20491;-81
2021/09/10 06:27:45;;;;;;;16.75;10.73;;;;;;;18.38;49.90;94166.75;4988268;28;20033;-78
2021/09/10 06:30:10;;;;;;;12.05;8.90;;;;;;;18.34;49.33;94142.44;4989030;28;20251;-79
2021/09/10 06:32:36;;;;;;;16.80;9.10;;;;;;;18.39;48.93;94154.84;4988414;28;20138;-78
2021/09/10 06:35:03;;;;;;;9.77;8.00;;;;;;;18.44;48.70;94165.31;4989071;28;20147;-78
2021/09/10 06:37:28;;;;;;;11.80;7.13;;;;;;;18.45;47.21;94164.19;4990213;28;20524;-78
2021/09/10 06:39:54;;;;;;;14.88;8.98;;;;;;;18.37;48.89;94171.34;4988838;28;20607;-80
2021/09/10 06:42:19;;;;;;;14.68;8.82;;;;;;;18.55;48.65;94170.94;4987108;28;20041;-79
2021/09/10 06:44:45;;;;;;;13.88;8.13;;;;;;;18.60;47.40;94165.25;4988851;28;20478;-78
2021/09/10 06:47:10;;;;;;;9.73;7.70;;;;;;;18.67;47.77;94173.50;4988419;28;20075;-78
2021/09/10 06:49:36;;;;;;;13.25;8.98;;;;;;;18.76;47.35;94172.16;4986988;28;20470;-78
2021/09/10 06:52:02;;;;;;;15.30;9.55;;;;;;;18.63;48.85;94169.94;4988345;28;20073;-78
2021/09/10 06:54:27;;;;;;;18.40;10.35;;;;;;;18.50;49.29;94174.69;4983153;28;20044;-79
2021/09/10 06:56:52;;;;;;;14.57;8.43;;;;;;;18.44;47.96;94157.25;4990603;28;20034;-79
2021/09/10 06:59:19;;;;;;;16.50;8.75;;;;;;;18.38;48.13;94169.44;4987379;28;20441;-77
2021/09/10 07:01:46;;;;;;;13.27;8.75;;;;;;;18.49;49.06;94170.44;4989934;28;20129;-79
2021/09/10 07:04:11;;;;;;;9.82;6.68;;;;;;;18.44;48.04;94162.63;4989493;28;20037;-78
2021/09/10 07:06:37;;;;;;;12.23;7.70;;;;;;;18.46;48.24;94166.53;4988515;28;20030;-76
2021/09/10 07:09:02;;;;;;;11.55;8.50;;;;;;;18.60;47.49;94167.94;4990606;28;21021;-77
2021/09/10 07:11:28;;;;;;;11.43;8.52;;;;;;;18.76;48.08;94180.25;4988911;28;20060;-78
2021/09/10 07:13:54;;;;;;;21.88;8.88;;;;;;;18.93;47.94;94178.22;4988433;28;20485;-78
2021/09/10 07:16:19;;;;;;;13.07;7.57;;;;;;;18.98;46.70;94175.25;4989253;28;20045;-79
2021/09/10 07:18:45;;;;;;;11.70;6.95;;;;;;;18.94;47.11;94150.16;4989413;28;20014;-78
2021/09/10 07:21:11;;;;;;;10.73;5.22;;;;;;;19.00;45.43;94167.59;4984402;28;20046;-78
2021/09/10 07:23:37;;;;;;;7.63;6.30;;;;;;;19.17;44.72;94167.91;4995687;28;20513;-78
2021/09/10 07:26:03;;;;;;;8.38;5.30;;;;;;;19.26;44.09;94170.41;4988205;28;20034;-79
2021/09/10 07:28:33;;;;;;;10.18;6.38;;;;;;;19.40;43.68;94186.81;4989319;28;20065;-79
2021/09/10 07:30:58;;;;;;;10.30;7.13;;;;;;;19.24;44.15;94183.44;4988999;28;20184;-79
2021/09/10 07:33:25;;;;;;;12.05;5.47;;;;;;;19.11;44.24;94158.59;4991809;28;20093;-79
2021/09/10 07:35:51;;;;;;;10.00;5.43;;;;;;;19.42;43.84;94178.34;4990690;28;20092;-78
2021/09/10 07:38:16;;;;;;;9.68;5.90;;;;;;;19.52;44.53;94178.56;4987300;28;20781;-77
2021/09/10 07:40:41;;;;;;;9.07;6.90;;;;;;;19.62;43.88;94180.66;4990449;28;20042;-79
2021/09/10 07:43:07;;;;;;;12.05;5.68;;;;;;;19.44;43.80;94176.06;4986660;28;20345;-79
2021/09/10 07:45:32;;;;;;;9.50;6.10;;;;;;;19.42;44.22;94184.53;4989555;28;20663;-80
2021/09/10 07:47:57;;;;;;;9.63;5.68;;;;;;;19.30;43.59;94187.41;4989035;28;20105;-79
2021/09/10 07:50:23;;;;;;;9.10;6.25;;;;;;;19.31;44.29;94184.34;4989014;28;20026;-79
2021/09/10 07:52:48;;;;;;;12.10;5.40;;;;;;;19.23;43.84;94171.88;4988303;28;20400;-79
2021/09/10 07:55:14;;;;;;;10.88;5.00;;;;;;;19.61;42.78;94181.78;4988129;28;20114;-78
2021/09/10 07:57:39;;;;;;;11.45;4.80;;;;;;;19.69;43.45;94169.19;4989340;28;20473;-79
2021/09/10 08:00:05;;;;;;;8.30;4.82;;;;;;;19.78;42.85;94179.75;4988720;28;20060;-78
2021/09/10 08:02:30;;;;;;;9.13;4.22;;;;;;;19.67;42.06;94185.75;4987122;28;20145;-78
2021/09/10 08:04:56;;;;;;;9.15;4.80;;;;;;;19.62;42.29;94167.16;4986933;28;20129;-80
2021/09/10 08:07:22;;;;;;;7.68;3.92;;;;;;;19.65;42.27;94177.22;4996078;28;20031;-76
2021/09/10 08:09:47;;;;;;;7.55;3.67;;;;;;;19.70;41.44;94178.84;4988421;28;20252;-76
2021/09/10 08:12:13;;;;;;;9.02;4.25;;;;;;;19.75;41.35;94190.09;4988013;28;20069;-77
2021/09/10 08:14:38;;;;;;;8.75;4.47;;;;;;;19.62;41.89;94174.47;4988140;28;20037;-79
2021/09/10 08:17:04;;;;;;;15.63;4.75;;;;;;;19.67;42.62;94183.03;4987786;28;20038;-77
2021/09/10 08:19:29;;;;;;;9.38;4.15;;;;;;;19.67;41.91;94179.56;4989800;28;20042;-78
2021/09/10 08:21:55;;;;;;;6.43;4.10;;;;;;;19.73;42.18;94187.00;4987039;28;20054;-78
2021/09/10 08:24:20;;;;;;;8.75;4.75;;;;;;;19.71;43.69;94167.69;4991509;28;20041;-75
2021/09/10 08:26:46;;;;;;;6.93;3.95;;;;;;;19.64;41.46;94174.91;4988464;28;20089;-78
2021/09/10 08:29:11;;;;;;;7.07;4.18;;;;;;;19.40;42.30;94154.44;4989190;28;20158;-78
2021/09/10 08:31:36;;;;;;;11.90;4.75;;;;;;;19.64;41.10;94159.50;4988372;28;20053;-78
2021/09/10 08:34:05;;;;;;;7.65;4.47;;;;;;;19.85;41.98;94174.47;4989409;28;20053;-77
2021/09/10 08:36:32;;;;;;;6.15;4.07;;;;;;;19.86;41.79;94173.31;4987850;28;21073;-77
2021/09/10 08:38:58;;;;;;;10.38;3.97;;;;;;;19.92;41.60;94172.63;4991869;28;20034;-77
2021/09/10 08:41:26;;;;;;;7.70;5.20;;;;;;;20.02;41.45;94173.94;4990437;28;20433;-80
2021/09/10 08:43:53;;;;;;;10.65;4.85;;;;;;;19.75;41.24;94175.81;4986543;28;20034;-78
2021/09/10 08:46:18;;;;;;;11.82;4.15;;;;;;;19.89;40.98;94162.56;4989188;28;20120;-78
2021/09/10 08:48:45;;;;;;;17.42;4.18;;;;;;;20.02;41.42;94168.53;4985863;28;20026;-79
2021/09/10 08:51:11;;;;;;;9.98;4.18;;;;;;;20.03;39.84;94164.69;4989964;28;20064;-78
2021/09/10 08:53:37;;;;;;;12.48;3.28;;;;;;;19.70;39.04;94141.84;4992231;28;20046;-79
2021/09/10 08:56:02;;;;;;;7.72;2.97;;;;;;;19.94;39.60;94146.06;4989826;28;20041;-78
2021/09/10 08:58:28;;;;;;;6.63;2.85;;;;;;;20.31;40.09;94157.00;4995414;28;20034;-78
2021/09/10 09:00:58;;;;;;;5.50;3.17;;;;;;;20.55;38.47;94151.13;4988980;28;20061;-80
2021/09/10 09:03:28;;;;;;;14.95;4.13;;;;;;;20.65;38.43;94155.13;4988337;28;20034;-79
2021/09/10 09:05:53;;;;;;;7.45;3.55;;;;;;;20.72;38.67;94146.31;4995268;28;20041;-77
2021/09/10 09:08:19;;;;;;;10.55;3.88;;;;;;;20.30;38.46;94108.75;4992329;28;20038;-78
2021/09/10 09:11:05;;;;;;;12.77;3.53;;;;;;;20.71;37.61;94132.03;4989688;28;20377;-78
2021/09/10 09:13:38;;;;;;;10.45;3.58;;;;;;;20.86;36.92;94149.19;4989897;28;20046;-79
2021/09/10 09:16:24;;;;;;;8.52;3.08;;;;;;;20.91;37.11;94143.47;4991617;28;20038;-80
2021/09/10 09:18:59;;;;;;;13.07;4.00;;;;;;;20.83;37.92;94147.19;4996313;28;20417;-78
2021/09/10 09:21:43;;;;;;;7.97;4.50;;;;;;;20.57;37.04;94132.66;4988705;28;20464;-79
2021/09/10 09:24:21;;;;;;;5.97;3.13;;;;;;;20.60;36.34;94144.63;4990746;28;20034;-79
2021/09/10 09:26:49;;;;;;;10.60;2.88;;;;;;;20.74;35.73;94149.41;4990389;28;20041;-79
2021/09/10 09:29:19;;;;;;;8.57;2.60;;;;;;;20.87;35.63;94142.66;4990689;28;20648;-78
2021/09/10 09:32:01;;;;;;;6.25;3.25;;;;;;;21.00;35.91;94135.84;4991676;28;20475;-79
2021/09/10 09:34:44;;;;;;;9.52;2.80;;;;;;;21.06;35.63;94133.59;4985319;28;20034;-80
2021/09/10 09:37:09;;;;;;;6.97;2.88;;;;;;;20.82;35.71;94119.41;4994262;28;20036;-80
2021/09/10 09:39:57;;;;;;;8.65;3.00;;;;;;;21.03;36.42;94132.38;4988001;28;20396;-79
2021/09/10 09:42:35;;;;;;;5.13;2.78;;;;;;;20.98;37.88;94122.69;4985458;28;20038;-78
2021/09/10 09:45:19;;;;;;;6.28;2.70;;;;;;;20.77;37.62;94078.44;4988820;28;20484;-78
2021/09/10 09:47:45;;;;;;;5.75;3.38;;;;;;;21.11;37.14;94125.91;4998647;28;20030;-79
2021/09/10 09:50:13;;;;;;;9.07;3.03;;;;;;;21.01;35.53;94124.66;4991751;28;20049;-78
2021/09/10 09:52:39;;;;;;;7.72;2.15;;;;;;;20.98;34.27;94117.28;4991007;28;20046;-79
2021/09/10 09:55:06;;;;;;;6.05;2.15;;;;;;;21.06;34.13;94118.13;4989966;28;20049;-80
2021/09/10 09:57:33;;;;;;;9.55;2.78;;;;;;;21.03;34.89;94124.28;4987082;28;20035;-79
2021/09/10 10:00:04;;;;;;;5.68;2.50;;;;;;;20.98;34.11;94116.50;4986684;28;20044;-79
2021/09/10 10:02:29;;;;;;;7.43;2.72;;;;;;;21.13;34.46;94112.00;4990389;28;20077;-78
2021/09/10 10:04:58;;;;;;;7.18;3.45;;;;;;;21.00;34.23;94087.16;4989512;28;20397;-79
2021/09/10 10:07:29;;;;;;;5.32;2.53;;;;;;;21.11;35.48;94104.28;4991524;28;20034;-80
2021/09/10 10:09:56;;;;;;;7.82;3.50;;;;;;;20.91;34.14;94086.69;4987116;28;20030;-80
2021/09/10 10:12:24;;;;;;;5.88;1.95;;;;;;;21.19;34.00;94092.38;4991163;28;20540;-78
2021/09/10 10:14:50;;;;;;;10.50;3.55;;;;;;;21.18;34.14;94108.97;4988873;28;20524;-79
2021/09/10 10:17:31;;;;;;;8.75;2.72;;;;;;;21.05;33.93;94111.16;4991891;28;20092;-78
2021/09/10 10:19:57;;;;;;;3.90;2.13;;;;;;;20.96;34.15;94102.59;4990969;28;20042;-78
2021/09/10 10:22:34;;;;;;;7.50;2.88;;;;;;;21.08;34.43;94112.34;4989677;28;20024;-77
2021/09/10 10:25:00;;;;;;;6.28;2.50;;;;;;;21.22;34.70;94115.16;4993139;28;20030;-78
2021/09/10 10:27:31;;;;;;;8.77;2.85;;;;;;;21.32;35.31;94109.06;4991150;28;20046;-78
2021/09/10 10:29:58;;;;;;;7.60;2.67;;;;;;;21.39;35.99;94107.22;4988233;28;21144;-79
2021/09/10 10:32:31;;;;;;;6.07;2.97;;;;;;;21.52;34.24;94109.63;4989288;28;21066;-78
2021/09/10 10:35:34;;;;;;;5.30;2.47;;;;;;;21.58;33.39;94091.94;4984194;28;20046;-78
2021/09/10 10:38:07;;;;;;;9.30;3.53;;;;;;;21.34;33.77;94091.34;4978235;28;20041;-79
2021/09/10 10:40:50;;;;;;;8.85;2.83;;;;;;;21.00;33.30;94098.00;4981248;28;20661;-79
2021/09/10 10:43:18;;;;;;;4.30;2.67;;;;;;;21.32;37.24;94101.75;4986022;28;20573;-79
2021/09/10 10:45:48;;;;;;;8.70;2.30;;;;;;;21.48;35.00;94092.59;4987840;28;20030;-79
2021/09/10 10:48:34;;;;;;;6.57;2.88;;;;;;;21.30;33.00;94085.13;4987760;28;20034;-79
2021/09/10 10:51:04;;;;;;;4.63;3.10;;;;;;;21.42;33.18;94092.94;4990677;28;20455;-78
2021/09/10 10:53:45;;;;;;;9.20;2.55;;;;;;;21.21;33.10;94087.38;4989609;28;20100;-78
2021/09/10 10:56:41;;;;;;;8.90;2.60;;;;;;;21.26;33.41;94084.31;4988091;28;20121;-79
2021/09/10 10:59:12;;;;;;;5.13;2.50;;;;;;;21.22;33.35;94082.72;4983655;28;20042;-79
2021/09/10 11:04:47;;;;;;;3.55;2.53;;;;;;;21.49;32.48;94083.31;4985744;28;20045;-78
2021/09/10 11:07:12;;;;;;;4.45;2.33;;;;;;;21.35;31.72;94075.88;4986981;28;20026;-78
2021/09/10 11:09:38;;;;;;;7.80;2.67;;;;;;;21.25;31.86;94069.25;4988123;28;20040;-78
2021/09/10 11:12:04;;;;;;;5.50;2.40;;;;;;;21.24;32.40;94088.53;4995688;28;20622;-78
2021/09/10 11:14:35;;;;;;;7.30;2.42;;;;;;;21.49;32.08;94080.63;4989681;28;20045;-79
2021/09/10 11:17:14;;;;;;;2.83;1.77;;;;;;;21.72;31.07;94062.25;4989693;28;20144;-79
2021/09/10 11:19:47;;;;;;;3.25;2.08;;;;;;;22.05;33.26;94075.59;4978952;28;20037;-79
2021/09/10 11:22:14;;;;;;;3.53;2.28;;;;;;;21.99;34.12;94071.72;4983529;28;20040;-81
2021/09/10 11:24:40;;;;;;;7.60;2.35;;;;;;;22.05;31.91;94074.81;4992128;28;20125;-78
2021/09/10 11:27:22;;;;;;;6.93;2.70;;;;;;;22.10;30.89;94067.09;4984993;28;20045;-79
2021/09/10 11:29:48;;;;;;;5.75;2.95;;;;;;;22.06;31.75;94060.91;4982746;28;20096;-79
2021/09/10 11:32:24;;;;;;;4.30;2.17;;;;;;;22.05;32.28;94048.50;4982214;28;20037;-79